createdAt,value
2023-08-25T00:02:01.190Z,6.13
2023-08-25T00:07:02.649Z,6.13
2023-08-25T00:12:04.286Z,6.20
2023-08-25T00:17:06.294Z,6.28
2023-08-25T00:22:07.527Z,6.55
2023-08-25T00:27:08.969Z,6.72
2023-08-25T00:32:11.152Z,7.20
2023-08-25T00:37:12.487Z,7.72
2023-08-25T00:42:14.689Z,7.10
2023-08-25T00:47:15.948Z,7.70
2023-08-25T00:52:19.054Z,7.28
2023-08-25T00:57:22.771Z,6.97
2023-08-25T01:02:24.570Z,7.47
2023-08-25T01:07:26.076Z,7.75
2023-08-25T01:12:41.380Z,7.75
2023-08-25T01:17:51.489Z,5.88
2023-08-25T01:23:50.176Z,6.90
2023-08-25T01:28:51.656Z,6.00
2023-08-25T01:33:53.894Z,5.97
2023-08-25T01:39:07.236Z,6.55
2023-08-25T01:44:11.926Z,6.75
2023-08-25T01:49:14.771Z,5.90
2023-08-25T01:54:16.101Z,6.25
2023-08-25T01:59:17.396Z,5.95
2023-08-25T02:04:18.813Z,6.25
2023-08-25T02:09:20.624Z,6.15
2023-08-25T02:14:22.002Z,6.10
2023-08-25T02:19:24.136Z,6.32
2023-08-25T02:24:30.675Z,6.85
2023-08-25T02:29:31.981Z,6.53
2023-08-25T02:34:34.288Z,6.30
2023-08-25T02:39:35.850Z,6.43
2023-08-25T02:44:37.796Z,6.88
2023-08-25T02:49:39.792Z,6.40
2023-08-25T02:54:41.383Z,6.63
2023-08-25T02:59:42.932Z,6.45
2023-08-25T03:04:44.312Z,6.53
2023-08-25T03:09:45.996Z,6.50
2023-08-25T03:14:47.403Z,6.47
2023-08-25T03:19:49.715Z,5.82
2023-08-25T03:24:50.975Z,7.63
2023-08-25T03:29:52.355Z,7.18
2023-08-25T03:34:53.789Z,7.75
2023-08-25T03:39:55.264Z,8.65
2023-08-25T03:44:56.680Z,7.13
2023-08-25T03:49:58.644Z,7.85
2023-08-25T03:54:59.814Z,7.68
2023-08-25T04:00:01.907Z,7.30
2023-08-25T04:05:04.065Z,7.53
2023-08-25T04:10:05.812Z,7.50
2023-08-25T04:15:08.446Z,7.72
2023-08-25T04:20:11.540Z,6.90
2023-08-25T04:25:13.517Z,6.60
2023-08-25T04:30:15.061Z,7.78
2023-08-25T04:35:16.729Z,7.93
2023-08-25T04:40:19.697Z,6.90
2023-08-25T04:45:21.626Z,6.93
2023-08-25T04:50:22.903Z,6.97
2023-08-25T04:55:24.257Z,7.57
2023-08-25T05:00:25.735Z,7.55
2023-08-25T05:05:27.642Z,6.53
2023-08-25T05:10:31.496Z,7.28
2023-08-25T05:15:33.811Z,6.55
2023-08-25T05:20:35.205Z,7.57
2023-08-25T05:25:37.574Z,8.45
2023-08-25T05:30:39.212Z,7.13
2023-08-25T05:35:41.146Z,7.47
2023-08-25T05:40:45.003Z,6.93
2023-08-25T05:45:46.283Z,9.35
2023-08-25T05:50:47.615Z,8.43
2023-08-25T05:55:50.288Z,8.90
2023-08-25T06:00:51.660Z,9.10
2023-08-25T06:05:54.153Z,10.45
2023-08-25T06:10:55.619Z,11.10
2023-08-25T06:15:57.023Z,11.77
2023-08-25T06:20:58.583Z,12.07
2023-08-25T06:25:59.788Z,12.88
2023-08-25T06:31:01.513Z,13.85
2023-08-25T06:36:03.010Z,15.15
2023-08-25T06:41:05.107Z,15.00
2023-08-25T06:46:06.615Z,15.77
2023-08-25T06:51:08.211Z,16.02
2023-08-25T06:56:10.398Z,14.52
2023-08-25T07:01:11.870Z,16.77
2023-08-25T07:06:13.310Z,15.82
2023-08-25T07:11:14.886Z,15.10
2023-08-25T07:16:16.117Z,15.95
2023-08-25T07:21:17.327Z,14.43
2023-08-25T07:26:18.524Z,15.95
2023-08-25T07:31:19.989Z,14.75
2023-08-25T07:36:21.453Z,17.17
2023-08-25T07:41:22.924Z,17.38
2023-08-25T07:46:24.653Z,18.80
2023-08-25T07:51:38.307Z,19.52
2023-08-25T07:56:42.159Z,20.58
2023-08-25T08:01:43.510Z,20.25
2023-08-25T08:06:45.026Z,20.30
2023-08-25T08:11:46.541Z,22.95
2023-08-25T08:16:48.305Z,21.05
2023-08-25T08:21:49.630Z,21.10
2023-08-25T08:26:50.852Z,22.60
2023-08-25T08:31:52.176Z,18.33
2023-08-25T08:36:53.467Z,18.33
2023-08-25T08:41:56.964Z,19.80
2023-08-25T08:47:00.100Z,19.65
2023-08-25T08:52:02.233Z,20.17
2023-08-25T08:57:04.736Z,23.05
2023-08-25T09:02:07.646Z,17.85
2023-08-25T09:07:11.096Z,16.48
2023-08-25T09:12:13.818Z,17.25
2023-08-25T09:17:15.729Z,16.83
2023-08-25T09:22:18.325Z,17.25
2023-08-25T09:27:27.245Z,20.23
2023-08-25T09:32:28.835Z,17.67
2023-08-25T09:37:41.200Z,18.80
2023-08-25T09:42:42.756Z,20.83
2023-08-25T09:47:44.194Z,21.10
2023-08-25T09:52:47.744Z,22.27
2023-08-25T09:57:50.283Z,22.20
2023-08-25T10:02:53.554Z,23.25
2023-08-25T10:07:55.398Z,22.10
2023-08-25T10:12:58.072Z,24.58
2023-08-25T10:18:07.306Z,27.83
2023-08-25T10:23:10.157Z,27.83
2023-08-25T10:28:11.617Z,29.90
2023-08-25T10:33:13.055Z,35.65
2023-08-25T10:38:20.689Z,34.08
2023-08-25T10:43:33.779Z,33.40
2023-08-25T10:48:38.084Z,36.28
2023-08-25T10:53:47.487Z,33.05
2023-08-25T10:59:06.849Z,37.10
2023-08-25T11:04:13.301Z,34.95
2023-08-25T11:09:21.046Z,45.45
2023-08-25T11:14:29.949Z,48.08
2023-08-25T11:19:32.942Z,55.85
2023-08-25T11:24:34.284Z,52.70
2023-08-25T11:29:35.891Z,49.55
2023-08-25T11:34:37.390Z,51.40
2023-08-25T11:39:45.108Z,44.60
2023-08-25T11:44:46.428Z,41.25
2023-08-25T11:49:50.823Z,42.45
2023-08-25T11:54:53.202Z,38.83
2023-08-25T11:59:57.338Z,37.55
2023-08-25T12:05:04.293Z,35.58
2023-08-25T12:10:07.816Z,34.22
2023-08-25T12:15:09.447Z,34.38
2023-08-25T12:20:16.002Z,33.53
2023-08-25T12:25:17.648Z,35.25
2023-08-25T12:30:19.095Z,37.17
2023-08-25T12:35:22.654Z,36.55
2023-08-25T12:40:25.211Z,37.42
2023-08-25T12:45:26.614Z,35.08
2023-08-25T12:50:30.895Z,27.85
2023-08-25T12:55:33.288Z,27.23
2023-08-25T13:00:34.661Z,29.25
2023-08-25T13:05:36.681Z,29.38
2023-08-25T13:10:37.845Z,27.42
2023-08-25T13:15:39.209Z,30.48
2023-08-25T13:20:40.481Z,28.58
2023-08-25T13:25:41.890Z,28.80
2023-08-25T13:30:43.370Z,27.92
2023-08-25T13:35:44.608Z,26.15
2023-08-25T13:40:45.769Z,28.00
2023-08-25T13:45:47.342Z,26.55
2023-08-25T13:50:49.992Z,27.42
2023-08-25T13:55:51.423Z,27.08
2023-08-25T14:00:53.239Z,28.60
2023-08-25T14:05:58.609Z,29.25
2023-08-25T14:11:03.025Z,29.55
2023-08-25T14:16:04.712Z,32.67
2023-08-25T14:21:05.914Z,32.15
2023-08-25T14:26:07.693Z,33.50
2023-08-25T14:31:09.151Z,34.38
2023-08-25T14:36:10.433Z,31.83
2023-08-25T14:41:12.069Z,31.42
2023-08-25T14:46:13.539Z,29.60
2023-08-25T14:51:16.170Z,30.77
2023-08-25T14:56:18.563Z,28.25
2023-08-25T15:01:19.863Z,27.15
2023-08-25T15:06:21.056Z,24.40
2023-08-25T15:11:22.423Z,22.48
2023-08-25T15:16:23.665Z,20.15
2023-08-25T15:21:25.126Z,21.33
2023-08-25T15:26:26.503Z,20.70
2023-08-25T15:31:27.850Z,21.35
2023-08-25T15:36:29.057Z,22.33
2023-08-25T15:41:30.217Z,21.58
2023-08-25T15:46:31.436Z,20.15
2023-08-25T15:51:32.822Z,19.35
2023-08-25T15:56:35.182Z,18.25
2023-08-25T16:01:36.576Z,21.00
2023-08-25T16:06:37.742Z,24.65
2023-08-25T16:11:39.884Z,23.38
2023-08-25T16:16:41.130Z,26.52
2023-08-25T16:21:42.544Z,27.20
2023-08-25T16:26:43.937Z,28.08
2023-08-25T16:31:45.368Z,25.08
2023-08-25T16:36:46.515Z,25.67
2023-08-25T16:41:47.836Z,24.80
2023-08-25T16:46:49.240Z,25.20
2023-08-25T16:51:50.476Z,23.95
2023-08-25T16:56:51.846Z,28.80
2023-08-25T17:01:53.268Z,28.75
2023-08-25T17:06:54.611Z,30.25
2023-08-25T17:11:55.938Z,34.35
2023-08-25T17:16:57.194Z,36.67
2023-08-25T17:21:58.359Z,35.33
2023-08-25T17:26:59.800Z,35.45
2023-08-25T17:32:01.203Z,36.95
2023-08-25T17:37:03.579Z,37.30
2023-08-25T17:42:05.222Z,38.17
2023-08-25T17:47:06.420Z,37.50
2023-08-25T17:52:07.630Z,37.05
2023-08-25T17:57:09.028Z,35.90
2023-08-25T18:02:10.595Z,32.60
2023-08-25T18:07:12.568Z,31.60
2023-08-25T18:12:14.056Z,29.88
2023-08-25T18:17:16.269Z,29.05
2023-08-25T18:22:17.609Z,29.95
2023-08-25T18:27:18.931Z,26.23
2023-08-25T18:32:20.140Z,23.92
2023-08-25T18:37:21.344Z,21.23
2023-08-25T18:42:22.516Z,20.80
2023-08-25T18:47:24.337Z,20.70
2023-08-25T18:52:25.685Z,22.48
2023-08-25T18:57:27.873Z,24.17
2023-08-25T19:02:29.163Z,25.50
2023-08-25T19:07:32.332Z,24.58
2023-08-25T19:12:33.527Z,24.67
2023-08-25T19:17:34.847Z,24.83
2023-08-25T19:22:38.145Z,25.30
2023-08-25T19:27:39.493Z,28.00
2023-08-25T19:32:41.166Z,29.05
2023-08-25T19:37:42.548Z,28.98
2023-08-25T19:42:46.736Z,26.70
2023-08-25T19:47:48.099Z,27.60
2023-08-25T19:52:49.307Z,26.15
2023-08-25T19:57:50.466Z,26.67
2023-08-25T20:02:51.783Z,26.67
2023-08-25T20:07:54.157Z,25.75
2023-08-25T20:12:56.531Z,26.77
2023-08-25T20:17:58.174Z,27.17
2023-08-25T20:23:00.221Z,27.77
2023-08-25T20:28:01.541Z,28.17
2023-08-25T20:33:02.974Z,28.08
2023-08-25T20:38:05.352Z,26.25
2023-08-25T20:43:06.678Z,23.98
2023-08-25T20:48:08.198Z,20.65
2023-08-25T20:53:09.515Z,19.42
2023-08-25T20:58:10.703Z,20.77
2023-08-25T21:03:13.147Z,19.40
2023-08-25T21:08:14.468Z,14.90
2023-08-25T21:13:16.348Z,14.77
2023-08-25T21:18:18.449Z,12.60
2023-08-25T21:23:21.556Z,11.57
2023-08-25T21:28:24.746Z,10.45
2023-08-25T21:33:27.586Z,8.98
2023-08-25T21:38:30.621Z,9.20
2023-08-25T21:43:31.786Z,6.32
2023-08-25T21:48:33.107Z,7.65
2023-08-25T21:53:34.435Z,6.90
2023-08-25T21:58:35.674Z,5.45
2023-08-25T22:03:37.547Z,3.75
2023-08-25T22:08:41.180Z,3.15
2023-08-25T22:13:43.088Z,3.40
2023-08-25T22:18:44.317Z,3.42
2023-08-25T22:23:46.068Z,3.45
2023-08-25T22:28:47.444Z,3.90
2023-08-25T22:38:53.186Z,3.90
2023-08-25T22:43:54.554Z,3.58
2023-08-25T22:48:56.885Z,3.30
2023-08-25T22:53:58.265Z,3.40
2023-08-25T22:58:59.747Z,2.95
2023-08-25T23:04:00.999Z,3.35
2023-08-25T23:09:02.389Z,3.17
2023-08-25T23:14:03.739Z,2.63
2023-08-25T23:19:05.784Z,3.33
2023-08-25T23:24:07.072Z,2.92
2023-08-25T23:29:08.269Z,3.60
2023-08-25T23:34:09.658Z,2.90
2023-08-25T23:39:11.681Z,3.30
2023-08-25T23:44:13.006Z,2.93
2023-08-25T23:49:14.535Z,3.00
2023-08-25T23:54:17.537Z,2.80
2023-08-25T23:59:18.720Z,2.27
